Time;durP1;ratioP1;P1;durP2;ratioP2;P2;SDS_P1;SDS_P2;PMS_P1;PMS_P2;Temp;Humidity;BMP_temperature;BMP_pressure;BME280_temperature;BME280_humidity;BME280_pressure;Samples;Min_cycle;Max_cycle;Signal;HPM_P1;HPM_P2
2023/06/21 00:00:18;;;;;;;;;14.00;13.67;;;;;;;;119877;1192;25274;-60
2023/06/21 00:03:06;;;;;;;;;15.00;15.00;;;;;;;;119868;1192;25005;-61
2023/06/21 00:05:38;;;;;;;;;18.00;13.00;;;;;;;;119894;1192;25223;-60
2023/06/21 00:08:06;;;;;;;;;18.00;15.67;;;;;;;;119520;1180;25429;-60
2023/06/21 00:10:35;;;;;;;;;14.50;14.50;;;;;;;;119514;1185;25454;-60
2023/06/21 00:13:03;;;;;;;;;18.00;10.00;;;;;;;;119841;1189;25262;-61
2023/06/21 00:15:31;;;;;;;;;14.50;14.50;;;;;;;;119854;1183;25880;-60
2023/06/21 00:18:00;;;;;;;;;16.00;14.00;;;;;;;;119880;1192;24879;-60
2023/06/21 00:20:28;;;;;;;;;14.33;11.33;;;;;;;;119880;1192;24742;-60
2023/06/21 00:22:57;;;;;;;;;15.50;13.50;;;;;;;;119480;1189;24987;-60
2023/06/21 00:25:25;;;;;;;;;17.50;15.00;;;;;;;;119483;1192;25194;-60
2023/06/21 00:27:53;;;;;;;;;18.00;15.25;;;;;;;;119856;1183;24847;-60
2023/06/21 00:30:22;;;;;;;;;17.00;15.00;;;;;;;;119861;1192;25480;-61
2023/06/21 00:32:50;;;;;;;;;20.50;17.50;;;;;;;;119850;1192;25059;-61
2023/06/21 00:35:18;;;;;;;;;15.33;13.33;;;;;;;;119870;1184;25600;-60
2023/06/21 00:37:47;;;;;;;;;13.00;12.00;;;;;;;;119681;1192;25571;-61
2023/06/21 00:40:16;;;;;;;;;16.50;15.00;;;;;;;;119873;1192;24908;-61
2023/06/21 00:42:44;;;;;;;;;17.00;16.25;;;;;;;;119417;1192;25242;-61
2023/06/21 00:45:15;;;;;;;;;17.00;15.00;;;;;;;;119504;1192;25092;-60
2023/06/21 00:47:45;;;;;;;;;16.00;14.33;;;;;;;;119676;1193;25028;-61
2023/06/21 00:50:14;;;;;;;;;9.33;9.33;;;;;;;;119691;1193;24983;-61
2023/06/21 00:52:43;;;;;;;;;23.00;15.00;;;;;;;;119481;1186;25360;-62
2023/06/21 00:55:14;;;;;;;;;15.33;12.33;;;;;;;;119748;1192;25358;-61
2023/06/21 00:57:44;;;;;;;;;17.00;16.33;;;;;;;;119520;1192;25562;-61
2023/06/21 01:00:17;;;;;;;;;14.00;13.00;;;;;;;;119886;1192;25637;-61
2023/06/21 01:02:46;;;;;;;;;14.00;12.50;;;;;;;;119849;1183;25583;-61
2023/06/21 01:05:16;;;;;;;;;16.00;11.33;;;;;;;;119865;1192;25493;-61
2023/06/21 01:08:00;;;;;;;;;14.50;14.00;;;;;;;;119494;1189;24821;-61
2023/06/21 01:10:58;;;;;;;;;14.00;12.00;;;;;;;;119489;1185;25713;-61
2023/06/21 01:13:48;;;;;;;;;13.33;11.67;;;;;;;;119875;1183;25517;-61
2023/06/21 01:16:18;;;;;;;;;21.25;16.25;;;;;;;;119882;1183;25232;-61
2023/06/21 01:18:48;;;;;;;;;17.00;13.75;;;;;;;;119456;1193;25512;-62
2023/06/21 01:21:20;;;;;;;;;15.33;15.00;;;;;;;;119489;1192;24991;-60
2023/06/21 01:24:13;;;;;;;;;21.25;16.50;;;;;;;;119487;1192;24728;-61
2023/06/21 01:26:52;;;;;;;;;21.00;16.00;;;;;;;;119469;1192;25560;-60
2023/06/21 01:29:23;;;;;;;;;14.25;13.50;;;;;;;;119512;1192;25602;-61
2023/06/21 01:31:54;;;;;;;;;18.00;12.33;;;;;;;;119490;1192;25884;-61
2023/06/21 01:34:23;;;;;;;;;15.67;15.33;;;;;;;;119723;1192;25102;-61
2023/06/21 01:36:52;;;;;;;;;20.33;15.33;;;;;;;;119470;1193;24820;-61
2023/06/21 01:39:20;;;;;;;;;15.00;14.00;;;;;;;;119679;1193;25783;-60
2023/06/21 01:41:48;;;;;;;;;17.00;16.00;;;;;;;;119689;1193;26132;-61
2023/06/21 01:44:17;;;;;;;;;15.50;14.50;;;;;;;;119698;1185;25628;-61
2023/06/21 01:46:46;;;;;;;;;12.00;11.67;;;;;;;;119752;1191;24933;-61
2023/06/21 01:49:16;;;;;;;;;14.33;12.67;;;;;;;;119470;1192;24710;-61
2023/06/21 01:51:44;;;;;;;;;19.50;15.00;;;;;;;;119693;1190;25212;-62
2023/06/21 01:54:15;;;;;;;;;17.00;14.75;;;;;;;;119464;1186;25665;-62
2023/06/21 01:56:45;;;;;;;;;15.00;14.00;;;;;;;;119460;1186;25402;-61
2023/06/21 01:59:14;;;;;;;;;15.00;12.00;;;;;;;;119693;1193;24728;-61
2023/06/21 02:01:42;;;;;;;;;18.00;16.67;;;;;;;;119453;1193;24773;-61
2023/06/21 02:04:11;;;;;;;;;15.67;15.33;;;;;;;;119476;1193;25013;-61
2023/06/21 02:06:39;;;;;;;;;13.00;12.50;;;;;;;;119447;1185;25035;-61
2023/06/21 02:09:09;;;;;;;;;16.50;16.50;;;;;;;;119454;1184;25514;-61
2023/06/21 02:11:37;;;;;;;;;24.00;19.00;;;;;;;;119491;1186;25649;-61
2023/06/21 02:14:06;;;;;;;;;18.00;14.67;;;;;;;;119689;1193;25350;-61
2023/06/21 02:16:34;;;;;;;;;17.33;15.33;;;;;;;;119457;1193;24986;-60
2023/06/21 02:19:04;;;;;;;;;18.00;15.00;;;;;;;;119449;1193;25129;-61
2023/06/21 02:21:32;;;;;;;;;19.33;15.67;;;;;;;;119681;1193;25580;-61
2023/06/21 02:24:01;;;;;;;;;16.00;14.00;;;;;;;;119433;1186;24981;-61
2023/06/21 02:26:29;;;;;;;;;18.00;15.50;;;;;;;;119399;1193;25213;-60
2023/06/21 02:28:58;;;;;;;;;18.50;15.50;;;;;;;;119439;1185;24842;-61
2023/06/21 02:31:26;;;;;;;;;16.25;14.25;;;;;;;;119701;1193;24952;-60
2023/06/21 02:33:54;;;;;;;;;16.00;15.00;;;;;;;;119449;1193;24907;-61
2023/06/21 02:36:23;;;;;;;;;17.50;14.75;;;;;;;;119673;1193;25053;-61
2023/06/21 02:38:52;;;;;;;;;15.00;15.00;;;;;;;;119679;1185;25012;-60
2023/06/21 02:41:20;;;;;;;;;15.00;15.00;;;;;;;;119694;1193;24923;-61
2023/06/21 02:43:49;;;;;;;;;15.50;13.50;;;;;;;;119687;1193;25215;-62
2023/06/21 02:46:18;;;;;;;;;15.00;15.00;;;;;;;;119642;1193;24794;-60
2023/06/21 02:48:46;;;;;;;;;18.50;16.00;;;;;;;;119425;1193;25653;-60
2023/06/21 02:51:15;;;;;;;;;11.50;11.50;;;;;;;;119692;1185;25589;-60
2023/06/21 02:53:43;;;;;;;;;17.50;17.00;;;;;;;;119709;1193;25493;-61
2023/06/21 02:56:11;;;;;;;;;16.00;15.33;;;;;;;;119670;1193;25121;-60
2023/06/21 02:58:40;;;;;;;;;17.00;16.00;;;;;;;;119671;1185;25364;-61
2023/06/21 03:01:08;;;;;;;;;17.00;16.00;;;;;;;;119688;1185;24906;-60
2023/06/21 03:03:36;;;;;;;;;20.00;17.00;;;;;;;;119458;1193;24982;-61
2023/06/21 03:06:05;;;;;;;;;17.00;14.75;;;;;;;;119687;1193;25337;-61
2023/06/21 03:08:33;;;;;;;;;13.00;10.00;;;;;;;;119697;1192;25079;-61
2023/06/21 03:11:02;;;;;;;;;18.50;15.00;;;;;;;;119883;1184;25333;-60
2023/06/21 03:13:30;;;;;;;;;20.33;15.67;;;;;;;;119866;1192;25642;-60
2023/06/21 03:15:58;;;;;;;;;15.33;14.67;;;;;;;;119748;1192;24770;-60
2023/06/21 03:18:27;;;;;;;;;17.33;16.33;;;;;;;;119772;1192;25590;-62
2023/06/21 03:21:00;;;;;;;;;14.67;13.67;;;;;;;;119864;1192;25210;-61
2023/06/21 03:23:28;;;;;;;;;14.00;14.00;;;;;;;;119885;1192;25105;-62
2023/06/21 03:25:57;;;;;;;;;14.50;14.50;;;;;;;;119863;1183;24926;-63
2023/06/21 03:28:25;;;;;;;;;17.00;15.50;;;;;;;;119876;1192;24734;-63
2023/06/21 03:30:54;;;;;;;;;14.00;14.00;;;;;;;;119518;1192;24907;-62
2023/06/21 03:33:22;;;;;;;;;20.00;18.00;;;;;;;;119761;1192;25040;-62
2023/06/21 03:35:51;;;;;;;;;15.00;15.00;;;;;;;;119507;1193;25466;-62
2023/06/21 03:38:19;;;;;;;;;21.00;18.00;;;;;;;;119856;1192;25237;-62
2023/06/21 03:40:48;;;;;;;;;22.00;20.00;;;;;;;;119500;1193;25339;-62
2023/06/21 03:43:16;;;;;;;;;20.00;17.00;;;;;;;;119893;1192;25182;-62
2023/06/21 03:45:45;;;;;;;;;18.00;16.00;;;;;;;;119516;1192;25284;-62
2023/06/21 03:48:13;;;;;;;;;16.67;16.33;;;;;;;;119875;1192;25286;-62
2023/06/21 03:50:42;;;;;;;;;16.50;15.00;;;;;;;;119499;1193;25270;-62
2023/06/21 03:53:10;;;;;;;;;20.33;16.00;;;;;;;;119880;1192;24771;-62
2023/06/21 03:55:39;;;;;;;;;18.50;18.50;;;;;;;;119464;1192;25510;-62
2023/06/21 03:58:07;;;;;;;;;20.00;15.00;;;;;;;;119868;1192;24710;-62
2023/06/21 04:00:35;;;;;;;;;19.50;16.00;;;;;;;;119439;1193;25521;-62
2023/06/21 04:03:04;;;;;;;;;20.25;18.50;;;;;;;;119679;1193;25641;-62
2023/06/21 04:05:32;;;;;;;;;17.00;15.00;;;;;;;;119665;1193;24977;-63
2023/06/21 04:08:01;;;;;;;;;17.00;16.00;;;;;;;;119809;1192;25175;-62
2023/06/21 04:10:29;;;;;;;;;21.50;17.25;;;;;;;;119868;1192;24965;-62
2023/06/21 04:12:57;;;;;;;;;16.00;16.00;;;;;;;;119710;1193;25313;-62
2023/06/21 04:15:28;;;;;;;;;22.50;16.50;;;;;;;;119701;1185;25560;-62
2023/06/21 04:17:56;;;;;;;;;16.33;16.00;;;;;;;;119826;1183;25036;-63
2023/06/21 04:20:24;;;;;;;;;16.00;14.00;;;;;;;;119517;1180;24738;-62
2023/06/21 04:22:53;;;;;;;;;21.67;16.67;;;;;;;;119861;1192;25403;-63
2023/06/21 04:25:22;;;;;;;;;19.00;18.25;;;;;;;;119865;1192;25325;-62
2023/06/21 04:27:50;;;;;;;;;16.33;16.33;;;;;;;;119502;1192;24809;-63
2023/06/21 04:30:18;;;;;;;;;16.50;15.50;;;;;;;;119471;1192;25272;-63
2023/06/21 04:32:47;;;;;;;;;15.00;14.00;;;;;;;;119862;1192;25075;-63
2023/06/21 04:35:17;;;;;;;;;14.50;11.00;;;;;;;;119502;1192;25471;-63
2023/06/21 04:37:46;;;;;;;;;20.50;12.50;;;;;;;;119489;1185;25069;-63
2023/06/21 04:40:17;;;;;;;;;13.00;13.00;;;;;;;;119452;1193;25249;-63
2023/06/21 04:42:54;;;;;;;;;16.33;15.33;;;;;;;;119469;1185;25321;-63
2023/06/21 04:45:25;;;;;;;;;18.50;17.50;;;;;;;;119547;1192;25696;-63
2023/06/21 04:47:57;;;;;;;;;20.25;15.75;;;;;;;;119522;1186;24851;-62
2023/06/21 04:50:27;;;;;;;;;19.67;16.67;;;;;;;;119879;1189;25432;-63
2023/06/21 04:52:58;;;;;;;;;16.00;14.50;;;;;;;;119892;1183;25322;-63
2023/06/21 04:55:28;;;;;;;;;17.50;12.50;;;;;;;;119845;1192;24786;-62
2023/06/21 04:57:58;;;;;;;;;17.00;15.00;;;;;;;;119484;1192;24985;-63
2023/06/21 05:00:27;;;;;;;;;19.50;17.50;;;;;;;;119880;1192;25243;-63
2023/06/21 05:02:56;;;;;;;;;12.25;12.25;;;;;;;;119871;1192;25154;-63
2023/06/21 05:05:25;;;;;;;;;19.00;15.50;;;;;;;;119876;1184;24805;-62
2023/06/21 05:07:53;;;;;;;;;16.00;15.75;;;;;;;;119520;1192;25538;-62
2023/06/21 05:10:22;;;;;;;;;18.00;15.67;;;;;;;;119851;1192;24736;-62
2023/06/21 05:12:50;;;;;;;;;20.50;19.00;;;;;;;;119831;1192;25109;-63
2023/06/21 05:15:18;;;;;;;;;17.50;17.00;;;;;;;;119497;1192;25177;-62
2023/06/21 05:17:47;;;;;;;;;21.00;18.50;;;;;;;;119883;1192;25697;-63
2023/06/21 05:20:17;;;;;;;;;22.00;18.00;;;;;;;;119862;1192;25397;-63
2023/06/21 05:22:46;;;;;;;;;18.50;18.00;;;;;;;;119861;1192;24735;-63
2023/06/21 05:25:14;;;;;;;;;19.50;16.50;;;;;;;;119868;1192;24786;-62
2023/06/21 05:27:43;;;;;;;;;17.00;16.00;;;;;;;;119860;1192;25296;-62
2023/06/21 05:30:11;;;;;;;;;21.50;17.00;;;;;;;;119891;1184;24982;-59
2023/06/21 05:32:39;;;;;;;;;20.00;19.00;;;;;;;;119868;1192;24795;-58
2023/06/21 05:35:08;;;;;;;;;19.67;18.67;;;;;;;;119487;1185;25725;-59
2023/06/21 05:37:36;;;;;;;;;18.50;17.00;;;;;;;;119850;1192;25418;-59
2023/06/21 05:40:08;;;;;;;;;20.33;16.67;;;;;;;;119474;1192;25188;-59
2023/06/21 05:42:36;;;;;;;;;25.67;18.33;;;;;;;;119855;1192;25414;-59
2023/06/21 05:45:07;;;;;;;;;20.33;17.00;;;;;;;;119854;1190;25734;-60
2023/06/21 05:47:36;;;;;;;;;20.67;15.67;;;;;;;;119536;1192;24869;-60
2023/06/21 05:50:05;;;;;;;;;20.00;18.00;;;;;;;;119475;1192;25441;-61
2023/06/21 05:52:33;;;;;;;;;19.67;17.00;;;;;;;;119849;1183;25103;-61
2023/06/21 05:55:02;;;;;;;;;22.00;17.25;;;;;;;;119866;1192;25762;-61
2023/06/21 05:57:30;;;;;;;;;22.00;17.50;;;;;;;;119873;1192;25290;-61
2023/06/21 05:59:58;;;;;;;;;18.00;17.00;;;;;;;;119852;1183;24732;-61
2023/06/21 06:02:27;;;;;;;;;19.00;19.00;;;;;;;;119869;1192;25174;-61
2023/06/21 06:04:55;;;;;;;;;20.00;19.00;;;;;;;;119866;1192;25762;-60
2023/06/21 06:07:24;;;;;;;;;21.00;18.00;;;;;;;;119875;1192;25183;-60
2023/06/21 06:09:53;;;;;;;;;19.00;17.50;;;;;;;;119858;1192;25551;-61
2023/06/21 06:12:21;;;;;;;;;19.67;18.00;;;;;;;;119881;1192;25497;-62
2023/06/21 06:14:50;;;;;;;;;19.00;17.00;;;;;;;;119474;1192;25337;-60
2023/06/21 06:17:19;;;;;;;;;17.33;17.00;;;;;;;;119495;1192;25401;-61
2023/06/21 06:19:47;;;;;;;;;21.00;16.00;;;;;;;;119879;1192;26083;-60
2023/06/21 06:22:16;;;;;;;;;18.00;16.33;;;;;;;;119513;1192;24852;-60
2023/06/21 06:24:46;;;;;;;;;18.00;14.33;;;;;;;;119840;1192;25532;-60
2023/06/21 06:27:14;;;;;;;;;18.50;16.50;;;;;;;;119869;1183;25138;-61
2023/06/21 06:29:43;;;;;;;;;16.75;14.25;;;;;;;;119879;1191;25595;-60
2023/06/21 06:32:11;;;;;;;;;21.50;17.00;;;;;;;;119872;1191;24904;-60
2023/06/21 06:34:39;;;;;;;;;18.50;16.50;;;;;;;;119880;1184;24917;-60
2023/06/21 06:37:07;;;;;;;;;17.33;16.00;;;;;;;;119883;1192;25076;-60
2023/06/21 06:39:42;;;;;;;;;19.00;15.00;;;;;;;;119859;1192;25642;-61
2023/06/21 06:42:10;;;;;;;;;19.25;15.25;;;;;;;;119456;1192;24744;-60
2023/06/21 06:44:38;;;;;;;;;20.33;15.67;;;;;;;;119882;1192;25330;-60
2023/06/21 06:47:07;;;;;;;;;17.50;14.50;;;;;;;;119883;1192;24917;-60
2023/06/21 06:49:35;;;;;;;;;20.00;18.00;;;;;;;;119893;1184;24864;-60
2023/06/21 06:52:05;;;;;;;;;15.50;13.75;;;;;;;;119869;1188;25111;-61
2023/06/21 06:54:33;;;;;;;;;24.00;20.00;;;;;;;;119870;1191;25149;-60
2023/06/21 06:57:02;;;;;;;;;21.00;17.50;;;;;;;;119888;1191;25383;-60
2023/06/21 06:59:30;;;;;;;;;17.50;15.00;;;;;;;;119885;1183;25574;-60
2023/06/21 07:01:58;;;;;;;;;12.00;12.00;;;;;;;;119868;1192;25300;-59
2023/06/21 07:04:28;;;;;;;;;17.00;14.00;;;;;;;;119852;1192;25184;-60
2023/06/21 07:06:58;;;;;;;;;18.00;15.00;;;;;;;;119510;1186;24926;-59
2023/06/21 07:09:27;;;;;;;;;19.00;16.00;;;;;;;;119496;1192;25315;-59
2023/06/21 07:11:59;;;;;;;;;19.33;16.00;;;;;;;;119854;1183;25205;-59
2023/06/21 07:14:27;;;;;;;;;19.00;17.00;;;;;;;;119887;1184;25354;-58
2023/06/21 07:16:56;;;;;;;;;18.00;16.33;;;;;;;;119475;1192;25143;-60
2023/06/21 07:19:24;;;;;;;;;23.00;16.50;;;;;;;;119890;1192;24727;-60
2023/06/21 07:21:52;;;;;;;;;15.67;14.00;;;;;;;;119848;1184;25288;-60
2023/06/21 07:24:21;;;;;;;;;19.00;17.00;;;;;;;;119507;1192;25061;-60
2023/06/21 07:26:49;;;;;;;;;18.00;16.00;;;;;;;;119864;1192;24902;-60
2023/06/21 07:29:17;;;;;;;;;15.33;15.00;;;;;;;;119870;1184;24892;-60
2023/06/21 07:31:46;;;;;;;;;19.00;15.50;;;;;;;;119870;1192;25085;-60
2023/06/21 07:34:14;;;;;;;;;14.00;14.00;;;;;;;;119879;1192;25894;-60
2023/06/21 07:36:43;;;;;;;;;15.33;12.00;;;;;;;;119890;1192;25384;-60
2023/06/21 07:39:12;;;;;;;;;18.00;16.00;;;;;;;;119877;1192;25613;-59
2023/06/21 07:41:40;;;;;;;;;22.50;19.00;;;;;;;;119878;1192;25013;-59
2023/06/21 07:44:09;;;;;;;;;16.50;15.00;;;;;;;;119865;1192;24962;-60
2023/06/21 07:46:38;;;;;;;;;16.50;16.50;;;;;;;;119896;1192;25698;-60
2023/06/21 07:49:06;;;;;;;;;14.25;12.50;;;;;;;;119492;1185;25172;-59
2023/06/21 07:51:34;;;;;;;;;17.33;16.33;;;;;;;;119874;1183;26044;-59
2023/06/21 07:54:03;;;;;;;;;16.00;16.00;;;;;;;;119874;1192;25619;-59
2023/06/21 07:56:31;;;;;;;;;17.00;16.00;;;;;;;;119889;1184;24807;-60
2023/06/21 07:59:00;;;;;;;;;16.50;15.00;;;;;;;;119863;1192;25421;-60
2023/06/21 08:01:28;;;;;;;;;16.00;14.33;;;;;;;;119866;1184;25649;-59
2023/06/21 08:03:59;;;;;;;;;18.00;16.50;;;;;;;;119866;1189;25710;-60
2023/06/21 08:06:28;;;;;;;;;16.00;14.00;;;;;;;;119713;1192;25574;-59
2023/06/21 08:08:56;;;;;;;;;15.50;15.00;;;;;;;;119864;1192;25172;-60
2023/06/21 08:11:29;;;;;;;;;16.00;14.33;;;;;;;;119519;1189;25753;-60
2023/06/21 08:13:57;;;;;;;;;19.67;16.00;;;;;;;;119879;1183;25625;-59
2023/06/21 08:16:26;;;;;;;;;19.50;15.50;;;;;;;;119492;1192;25137;-60
2023/06/21 08:18:54;;;;;;;;;19.33;18.00;;;;;;;;119862;1192;25520;-59
2023/06/21 08:21:22;;;;;;;;;18.00;16.00;;;;;;;;119515;1192;24776;-60
2023/06/21 08:23:50;;;;;;;;;21.33;19.00;;;;;;;;119875;1183;24900;-60
2023/06/21 08:26:19;;;;;;;;;18.25;16.25;;;;;;;;119900;1192;25476;-60
2023/06/21 08:28:47;;;;;;;;;16.67;16.33;;;;;;;;119878;1183;25444;-60
2023/06/21 08:31:16;;;;;;;;;22.00;20.00;;;;;;;;119869;1183;25290;-60
2023/06/21 08:33:44;;;;;;;;;13.67;12.33;;;;;;;;119862;1192;25000;-59
2023/06/21 08:36:12;;;;;;;;;20.00;16.50;;;;;;;;119870;1192;25436;-60
2023/06/21 08:38:41;;;;;;;;;25.00;20.33;;;;;;;;119857;1192;25011;-62
2023/06/21 08:41:09;;;;;;;;;20.50;18.50;;;;;;;;119722;1192;24872;-60
2023/06/21 08:43:37;;;;;;;;;22.25;19.00;;;;;;;;119854;1184;24937;-61
2023/06/21 08:46:06;;;;;;;;;22.00;19.00;;;;;;;;119873;1192;25443;-60
2023/06/21 08:48:37;;;;;;;;;21.00;20.33;;;;;;;;119882;1192;25685;-61
2023/06/21 08:51:05;;;;;;;;;20.50;18.00;;;;;;;;119486;1192;25318;-61
2023/06/21 08:54:08;;;;;;;;;23.50;20.75;;;;;;;;119481;1192;24782;-60
2023/06/21 08:56:48;;;;;;;;;17.00;17.00;;;;;;;;119501;1185;24973;-60
2023/06/21 08:59:39;;;;;;;;;25.00;19.00;;;;;;;;119471;1192;25552;-60
2023/06/21 09:02:16;;;;;;;;;15.67;15.67;;;;;;;;119856;1183;25472;-61
2023/06/21 09:04:46;;;;;;;;;19.00;15.50;;;;;;;;119484;1192;25004;-60
2023/06/21 09:07:15;;;;;;;;;14.33;14.33;;;;;;;;119511;1192;24922;-60
2023/06/21 09:09:44;;;;;;;;;19.00;15.75;;;;;;;;119495;1192;24844;-60
2023/06/21 09:12:16;;;;;;;;;13.50;13.00;;;;;;;;119469;1186;25327;-60
2023/06/21 09:14:44;;;;;;;;;19.50;15.00;;;;;;;;119894;1188;24971;-61
2023/06/21 09:17:13;;;;;;;;;16.00;14.00;;;;;;;;119636;1180;24993;-60
2023/06/21 09:19:43;;;;;;;;;15.67;13.00;;;;;;;;119586;1192;25620;-60
2023/06/21 09:22:13;;;;;;;;;17.50;15.75;;;;;;;;119879;1188;24709;-61
2023/06/21 09:24:41;;;;;;;;;16.00;12.75;;;;;;;;119614;1189;24890;-60
2023/06/21 09:27:10;;;;;;;;;17.00;14.75;;;;;;;;119896;1183;25777;-61
2023/06/21 09:29:38;;;;;;;;;13.33;13.00;;;;;;;;119469;1190;25174;-60
2023/06/21 09:32:07;;;;;;;;;18.50;15.50;;;;;;;;119651;1187;24865;-60
2023/06/21 09:34:36;;;;;;;;;15.67;13.00;;;;;;;;119909;1188;25110;-60
2023/06/21 09:37:04;;;;;;;;;18.00;16.00;;;;;;;;119675;1192;25424;-60
2023/06/21 09:39:32;;;;;;;;;14.25;10.75;;;;;;;;119913;1192;24940;-60
2023/06/21 09:42:01;;;;;;;;;15.67;13.33;;;;;;;;119898;1183;24928;-60
2023/06/21 09:44:34;;;;;;;;;14.50;14.50;;;;;;;;119716;1192;24746;-60
2023/06/21 09:47:02;;;;;;;;;14.00;12.00;;;;;;;;119885;1191;25433;-60
2023/06/21 09:49:31;;;;;;;;;12.00;9.00;;;;;;;;119912;1192;25280;-60
2023/06/21 09:51:59;;;;;;;;;15.00;14.33;;;;;;;;119904;1192;25565;-60
2023/06/21 09:54:40;;;;;;;;;15.00;14.67;;;;;;;;119890;1192;25622;-60
2023/06/21 09:57:08;;;;;;;;;13.00;13.00;;;;;;;;119880;1192;25497;-60
2023/06/21 09:59:37;;;;;;;;;12.00;9.67;;;;;;;;119906;1192;25284;-60
2023/06/21 10:02:07;;;;;;;;;12.67;12.00;;;;;;;;119730;1192;25441;-60
2023/06/21 10:04:43;;;;;;;;;16.00;10.67;;;;;;;;119522;1192;24800;-60
2023/06/21 10:07:14;;;;;;;;;11.00;10.33;;;;;;;;119610;1192;24851;-60
2023/06/21 10:09:42;;;;;;;;;11.67;11.67;;;;;;;;119599;1189;25234;-60
2023/06/21 10:12:11;;;;;;;;;14.50;13.50;;;;;;;;119868;1184;25458;-60
2023/06/21 10:14:40;;;;;;;;;12.50;12.50;;;;;;;;119515;1184;25292;-60
2023/06/21 10:17:10;;;;;;;;;15.33;11.00;;;;;;;;119860;1192;25492;-60
2023/06/21 10:19:41;;;;;;;;;14.00;14.00;;;;;;;;119873;1192;24824;-60
2023/06/21 10:22:17;;;;;;;;;12.67;10.67;;;;;;;;119902;1188;25018;-60
2023/06/21 10:24:50;;;;;;;;;13.50;13.00;;;;;;;;119885;1188;25008;-60
2023/06/21 10:27:20;;;;;;;;;12.33;12.33;;;;;;;;119608;1189;24927;-60
2023/06/21 10:29:53;;;;;;;;;14.00;12.00;;;;;;;;119875;1192;25678;-60
2023/06/21 10:32:23;;;;;;;;;10.50;10.50;;;;;;;;119901;1184;25409;-60
2023/06/21 10:35:07;;;;;;;;;11.00;11.00;;;;;;;;119502;1185;25255;-60
2023/06/21 10:38:11;;;;;;;;;11.00;10.67;;;;;;;;119873;1192;24702;-60
2023/06/21 10:40:40;;;;;;;;;12.00;10.50;;;;;;;;119493;1185;25341;-60
2023/06/21 10:43:10;;;;;;;;;35.00;26.00;;;;;;;;119854;1183;25477;-60
2023/06/21 10:45:40;;;;;;;;;27.67;23.33;;;;;;;;119511;1192;25181;-60
2023/06/21 10:48:09;;;;;;;;;25.00;22.50;;;;;;;;119489;1192;24723;-60
2023/06/21 10:50:41;;;;;;;;;34.00;31.00;;;;;;;;119523;1192;24806;-60
2023/06/21 10:53:11;;;;;;;;;23.75;22.50;;;;;;;;119483;1186;25386;-63
2023/06/21 10:55:41;;;;;;;;;23.75;22.75;;;;;;;;119525;1192;24941;-65
2023/06/21 10:58:10;;;;;;;;;;;;;;;;;;119879;1192;25403;-70
2023/06/21 11:00:38;;;;;;;;;24.00;23.00;;;;;;;;119476;1192;24797;-67
2023/06/21 11:03:06;;;;;;;;;27.75;24.75;;;;;;;;119848;1192;25164;-67
2023/06/21 11:05:35;;;;;;;;;24.00;21.50;;;;;;;;119509;1185;24745;-68
2023/06/21 11:08:05;;;;;;;;;25.00;20.00;;;;;;;;119857;1192;25600;-66
2023/06/21 11:10:49;;;;;;;;;23.67;22.00;;;;;;;;119476;1192;25685;-66
2023/06/21 11:13:36;;;;;;;;;16.67;16.67;;;;;;;;119507;1186;25166;-66
2023/06/21 11:16:14;;;;;;;;;19.50;18.00;;;;;;;;119509;1192;25175;-67
2023/06/21 11:18:45;;;;;;;;;17.33;12.33;;;;;;;;119720;1192;25282;-66
2023/06/21 11:21:14;;;;;;;;;17.00;17.00;;;;;;;;119485;1192;25362;-66
2023/06/21 11:23:50;;;;;;;;;16.50;16.00;;;;;;;;119505;1192;25354;-67
2023/06/21 11:26:18;;;;;;;;;16.00;16.00;;;;;;;;119476;1193;25461;-66
2023/06/21 11:28:48;;;;;;;;;17.33;15.33;;;;;;;;119866;1192;25560;-66
2023/06/21 11:31:23;;;;;;;;;17.50;15.50;;;;;;;;119492;1193;24820;-66
2023/06/21 11:33:56;;;;;;;;;14.00;13.67;;;;;;;;119899;1192;25742;-66
2023/06/21 11:36:27;;;;;;;;;15.67;15.33;;;;;;;;119473;1193;25496;-66
2023/06/21 11:39:04;;;;;;;;;13.50;11.75;;;;;;;;119870;1192;25745;-66
2023/06/21 11:41:45;;;;;;;;;13.50;12.00;;;;;;;;119861;1192;25074;-66
2023/06/21 11:44:15;;;;;;;;;12.33;12.33;;;;;;;;119863;1192;25326;-66
2023/06/21 11:46:43;;;;;;;;;17.50;14.00;;;;;;;;119502;1186;25195;-66
2023/06/21 11:49:12;;;;;;;;;15.00;15.00;;;;;;;;119856;1192;24787;-67
2023/06/21 11:51:51;;;;;;;;;15.00;11.00;;;;;;;;119900;1183;25448;-67
2023/06/21 11:54:36;;;;;;;;;15.00;13.75;;;;;;;;119856;1183;25496;-67
2023/06/21 11:57:05;;;;;;;;;15.00;13.00;;;;;;;;119487;1185;24938;-68
2023/06/21 11:59:35;;;;;;;;;12.67;12.67;;;;;;;;119486;1185;25036;-66
2023/06/21 12:02:17;;;;;;;;;15.75;12.00;;;;;;;;119495;1193;24982;-66
2023/06/21 12:04:45;;;;;;;;;16.33;13.33;;;;;;;;119876;1192;25622;-67
2023/06/21 12:07:15;;;;;;;;;16.67;15.67;;;;;;;;119887;1183;25262;-65
2023/06/21 12:09:50;;;;;;;;;17.50;13.25;;;;;;;;119868;1183;25611;-67
2023/06/21 12:12:26;;;;;;;;;14.00;13.00;;;;;;;;119889;1192;25660;-67
2023/06/21 12:14:58;;;;;;;;;13.33;12.67;;;;;;;;119891;1192;25163;-65
2023/06/21 12:17:26;;;;;;;;;17.33;16.33;;;;;;;;119528;1192;25485;-67
2023/06/21 12:19:59;;;;;;;;;10.50;10.00;;;;;;;;119514;1185;25739;-66
2023/06/21 12:22:27;;;;;;;;;16.00;13.50;;;;;;;;119478;1192;25662;-66
2023/06/21 12:24:55;;;;;;;;;8.00;8.00;;;;;;;;119729;1192;24975;-66
2023/06/21 12:27:24;;;;;;;;;15.00;11.00;;;;;;;;119896;1183;25764;-66
2023/06/21 12:29:52;;;;;;;;;14.75;13.75;;;;;;;;119863;1183;25263;-67
2023/06/21 12:32:20;;;;;;;;;16.00;13.67;;;;;;;;119856;1188;24771;-65
2023/06/21 12:34:49;;;;;;;;;14.00;13.00;;;;;;;;119526;1185;25665;-66
2023/06/21 12:37:20;;;;;;;;;11.25;10.75;;;;;;;;119506;1185;24772;-66
2023/06/21 12:39:50;;;;;;;;;12.67;12.67;;;;;;;;119869;1192;25273;-67
2023/06/21 12:42:20;;;;;;;;;15.00;15.00;;;;;;;;119496;1185;25714;-66
2023/06/21 12:44:49;;;;;;;;;14.00;14.00;;;;;;;;119497;1192;25388;-66
2023/06/21 12:47:17;;;;;;;;;12.00;12.00;;;;;;;;119483;1192;25444;-66
2023/06/21 12:49:47;;;;;;;;;13.00;11.00;;;;;;;;119848;1192;25472;-66
2023/06/21 12:52:15;;;;;;;;;16.00;14.33;;;;;;;;119870;1183;25573;-66
2023/06/21 12:54:54;;;;;;;;;10.75;9.00;;;;;;;;119491;1192;24918;-66
2023/06/21 12:57:27;;;;;;;;;11.67;11.33;;;;;;;;119868;1183;25262;-66
2023/06/21 12:59:55;;;;;;;;;16.50;13.50;;;;;;;;119502;1192;25287;-66
2023/06/21 13:02:26;;;;;;;;;14.67;14.33;;;;;;;;119858;1183;25351;-66
2023/06/21 13:04:56;;;;;;;;;17.00;15.00;;;;;;;;119879;1189;25586;-66
2023/06/21 13:07:24;;;;;;;;;15.00;12.00;;;;;;;;119486;1192;25407;-66
2023/06/21 13:09:52;;;;;;;;;14.33;13.00;;;;;;;;119486;1189;25638;-66
2023/06/21 13:12:21;;;;;;;;;14.67;14.67;;;;;;;;119864;1192;25597;-66
2023/06/21 13:14:49;;;;;;;;;12.50;12.50;;;;;;;;119878;1180;25786;-66
2023/06/21 13:17:17;;;;;;;;;13.50;12.00;;;;;;;;119495;1192;25311;-67
2023/06/21 13:19:46;;;;;;;;;9.50;9.50;;;;;;;;119867;1192;25120;-66
2023/06/21 13:22:14;;;;;;;;;14.33;14.33;;;;;;;;119873;1183;25485;-66
2023/06/21 13:24:42;;;;;;;;;14.67;14.00;;;;;;;;119867;1192;25107;-66
2023/06/21 13:27:11;;;;;;;;;18.00;14.67;;;;;;;;119878;1192;24923;-66
2023/06/21 13:29:39;;;;;;;;;8.67;8.33;;;;;;;;119876;1183;25306;-66
2023/06/21 13:32:07;;;;;;;;;11.00;9.00;;;;;;;;119856;1192;24708;-66
2023/06/21 13:34:36;;;;;;;;;16.50;14.25;;;;;;;;119489;1192;24958;-66
2023/06/21 13:37:04;;;;;;;;;12.00;10.00;;;;;;;;119858;1192;25411;-66
2023/06/21 13:39:34;;;;;;;;;14.50;12.00;;;;;;;;119876;1192;25140;-66
2023/06/21 13:42:03;;;;;;;;;12.50;11.00;;;;;;;;119494;1192;25498;-66
2023/06/21 13:44:31;;;;;;;;;17.67;16.00;;;;;;;;119488;1193;25392;-66
2023/06/21 13:46:59;;;;;;;;;11.50;8.00;;;;;;;;119861;1192;25373;-66
2023/06/21 13:49:28;;;;;;;;;14.75;13.00;;;;;;;;119853;1192;25512;-64
2023/06/21 13:51:56;;;;;;;;;12.67;11.00;;;;;;;;119512;1192;25390;-64
2023/06/21 13:54:25;;;;;;;;;12.50;12.00;;;;;;;;119874;1192;24892;-65
2023/06/21 13:56:54;;;;;;;;;15.50;13.50;;;;;;;;119886;1183;25547;-67
2023/06/21 13:59:22;;;;;;;;;12.00;11.00;;;;;;;;119871;1183;24753;-66
2023/06/21 14:01:50;;;;;;;;;13.00;13.00;;;;;;;;119467;1192;24817;-65
2023/06/21 14:04:19;;;;;;;;;16.33;13.33;;;;;;;;119878;1192;24893;-66
2023/06/21 14:06:47;;;;;;;;;14.25;12.50;;;;;;;;119881;1183;25400;-65
2023/06/21 14:09:16;;;;;;;;;13.50;10.00;;;;;;;;119873;1192;24881;-65
2023/06/21 14:11:44;;;;;;;;;14.00;14.00;;;;;;;;119483;1192;25106;-65
2023/06/21 14:14:13;;;;;;;;;11.00;11.00;;;;;;;;119719;1192;25502;-66
2023/06/21 14:16:41;;;;;;;;;10.67;10.00;;;;;;;;119876;1183;25383;-66
2023/06/21 14:19:10;;;;;;;;;10.33;10.33;;;;;;;;119868;1192;25238;-66
2023/06/21 14:21:39;;;;;;;;;13.00;10.50;;;;;;;;119863;1192;25517;-66